sensor_id;sensor_type;location;lat;lon;timestamp;P1;durP1;ratioP1;P2;durP2;ratioP2
56670;SDS011;42545;50.054;8.306;2023-07-30T00:02:15;0.30;;;0.30;;
56670;SDS011;42545;50.054;8.306;2023-07-30T00:04:42;0.50;;;0.50;;
56670;SDS011;42545;50.054;8.306;2023-07-30T00:07:09;0.40;;;0.40;;
56670;SDS011;42545;50.054;8.306;2023-07-30T00:09:38;0.40;;;0.40;;
56670;SDS011;42545;50.054;8.306;2023-07-30T00:12:05;0.40;;;0.40;;
56670;SDS011;42545;50.054;8.306;2023-07-30T00:14:33;0.43;;;0.43;;
56670;SDS011;42545;50.054;8.306;2023-07-30T00:17:00;0.30;;;0.30;;
56670;SDS011;42545;50.054;8.306;2023-07-30T00:19:28;0.40;;;0.40;;
56670;SDS011;42545;50.054;8.306;2023-07-30T00:21:55;0.40;;;0.40;;
56670;SDS011;42545;50.054;8.306;2023-07-30T00:24:21;0.40;;;0.40;;
56670;SDS011;42545;50.054;8.306;2023-07-30T00:26:50;0.45;;;0.45;;
56670;SDS011;42545;50.054;8.306;2023-07-30T00:29:16;0.50;;;0.50;;
56670;SDS011;42545;50.054;8.306;2023-07-30T00:31:43;0.55;;;0.50;;
56670;SDS011;42545;50.054;8.306;2023-07-30T00:34:10;0.50;;;0.50;;
56670;SDS011;42545;50.054;8.306;2023-07-30T00:36:37;0.60;;;0.60;;
56670;SDS011;42545;50.054;8.306;2023-07-30T00:39:04;0.60;;;0.60;;
56670;SDS011;42545;50.054;8.306;2023-07-30T00:41:30;0.70;;;0.70;;
56670;SDS011;42545;50.054;8.306;2023-07-30T00:43:59;0.82;;;0.82;;
56670;SDS011;42545;50.054;8.306;2023-07-30T00:46:26;1.20;;;0.93;;
56670;SDS011;42545;50.054;8.306;2023-07-30T00:48:53;1.52;;;1.42;;
56670;SDS011;42545;50.054;8.306;2023-07-30T00:51:21;1.13;;;1.02;;
56670;SDS011;42545;50.054;8.306;2023-07-30T00:53:48;1.55;;;1.30;;
56670;SDS011;42545;50.054;8.306;2023-07-30T00:56:15;1.30;;;1.20;;
56670;SDS011;42545;50.054;8.306;2023-07-30T00:58:42;1.40;;;1.20;;
56670;SDS011;42545;50.054;8.306;2023-07-30T01:01:12;2.13;;;1.30;;
56670;SDS011;42545;50.054;8.306;2023-07-30T01:03:39;2.15;;;1.73;;
56670;SDS011;42545;50.054;8.306;2023-07-30T01:06:06;1.85;;;1.65;;
56670;SDS011;42545;50.054;8.306;2023-07-30T01:08:33;2.05;;;1.52;;
56670;SDS011;42545;50.054;8.306;2023-07-30T01:11:00;2.40;;;1.52;;
56670;SDS011;42545;50.054;8.306;2023-07-30T01:13:28;1.55;;;1.40;;
56670;SDS011;42545;50.054;8.306;2023-07-30T01:15:55;1.27;;;1.17;;
56670;SDS011;42545;50.054;8.306;2023-07-30T01:18:24;1.40;;;1.30;;
56670;SDS011;42545;50.054;8.306;2023-07-30T01:20:54;1.73;;;1.50;;
56670;SDS011;42545;50.054;8.306;2023-07-30T01:23:24;1.50;;;1.40;;
56670;SDS011;42545;50.054;8.306;2023-07-30T01:25:51;1.38;;;1.27;;
56670;SDS011;42545;50.054;8.306;2023-07-30T01:28:27;1.70;;;1.60;;
56670;SDS011;42545;50.054;8.306;2023-07-30T01:30:55;1.63;;;1.42;;
56670;SDS011;42545;50.054;8.306;2023-07-30T01:33:26;1.58;;;1.30;;
56670;SDS011;42545;50.054;8.306;2023-07-30T01:35:55;1.40;;;1.30;;
56670;SDS011;42545;50.054;8.306;2023-07-30T01:38:23;1.80;;;1.52;;
56670;SDS011;42545;50.054;8.306;2023-07-30T01:40:52;1.75;;;1.65;;
56670;SDS011;42545;50.054;8.306;2023-07-30T01:43:19;2.28;;;1.70;;
56670;SDS011;42545;50.054;8.306;2023-07-30T01:45:46;1.70;;;1.50;;
56670;SDS011;42545;50.054;8.306;2023-07-30T01:48:13;1.83;;;1.60;;
56670;SDS011;42545;50.054;8.306;2023-07-30T01:50:40;1.88;;;1.70;;
56670;SDS011;42545;50.054;8.306;2023-07-30T01:53:09;1.58;;;1.48;;
56670;SDS011;42545;50.054;8.306;2023-07-30T01:55:36;2.00;;;1.40;;
56670;SDS011;42545;50.054;8.306;2023-07-30T01:58:04;1.42;;;1.25;;
56670;SDS011;42545;50.054;8.306;2023-07-30T02:00:31;1.40;;;1.30;;
56670;SDS011;42545;50.054;8.306;2023-07-30T02:02:59;1.33;;;1.23;;
56670;SDS011;42545;50.054;8.306;2023-07-30T02:05:25;1.30;;;1.20;;
56670;SDS011;42545;50.054;8.306;2023-07-30T02:07:52;1.30;;;1.20;;
56670;SDS011;42545;50.054;8.306;2023-07-30T02:10:21;1.10;;;1.00;;
56670;SDS011;42545;50.054;8.306;2023-07-30T02:12:48;1.08;;;0.98;;
56670;SDS011;42545;50.054;8.306;2023-07-30T02:15:14;1.15;;;1.05;;
56670;SDS011;42545;50.054;8.306;2023-07-30T02:17:41;0.98;;;0.95;;
56670;SDS011;42545;50.054;8.306;2023-07-30T02:20:08;0.77;;;0.77;;
56670;SDS011;42545;50.054;8.306;2023-07-30T02:22:35;1.05;;;0.98;;
56670;SDS011;42545;50.054;8.306;2023-07-30T02:25:03;1.13;;;1.00;;
56670;SDS011;42545;50.054;8.306;2023-07-30T02:27:32;0.90;;;0.90;;
56670;SDS011;42545;50.054;8.306;2023-07-30T02:29:59;1.10;;;1.00;;
56670;SDS011;42545;50.054;8.306;2023-07-30T02:32:26;1.05;;;0.95;;
56670;SDS011;42545;50.054;8.306;2023-07-30T02:34:54;1.10;;;0.98;;
56670;SDS011;42545;50.054;8.306;2023-07-30T02:37:20;1.10;;;1.00;;
56670;SDS011;42545;50.054;8.306;2023-07-30T02:39:47;1.08;;;0.93;;
56670;SDS011;42545;50.054;8.306;2023-07-30T02:42:13;0.90;;;0.90;;
56670;SDS011;42545;50.054;8.306;2023-07-30T02:44:42;0.88;;;0.88;;
56670;SDS011;42545;50.054;8.306;2023-07-30T02:47:09;0.93;;;0.90;;
56670;SDS011;42545;50.054;8.306;2023-07-30T02:49:35;1.08;;;0.98;;
56670;SDS011;42545;50.054;8.306;2023-07-30T02:52:02;1.10;;;1.00;;
56670;SDS011;42545;50.054;8.306;2023-07-30T02:54:29;1.23;;;0.90;;
56670;SDS011;42545;50.054;8.306;2023-07-30T02:56:56;1.08;;;0.98;;
56670;SDS011;42545;50.054;8.306;2023-07-30T02:59:23;0.90;;;0.90;;
56670;SDS011;42545;50.054;8.306;2023-07-30T03:01:51;1.00;;;0.90;;
56670;SDS011;42545;50.054;8.306;2023-07-30T03:04:18;0.80;;;0.80;;
56670;SDS011;42545;50.054;8.306;2023-07-30T03:06:45;0.80;;;0.80;;
56670;SDS011;42545;50.054;8.306;2023-07-30T03:09:12;0.73;;;0.73;;
56670;SDS011;42545;50.054;8.306;2023-07-30T03:11:39;0.63;;;0.60;;
56670;SDS011;42545;50.054;8.306;2023-07-30T03:14:05;0.95;;;0.90;;
56670;SDS011;42545;50.054;8.306;2023-07-30T03:16:32;0.70;;;0.70;;
56670;SDS011;42545;50.054;8.306;2023-07-30T03:19:00;0.70;;;0.70;;
56670;SDS011;42545;50.054;8.306;2023-07-30T03:21:27;1.08;;;0.98;;
56670;SDS011;42545;50.054;8.306;2023-07-30T03:23:54;0.60;;;0.60;;
56670;SDS011;42545;50.054;8.306;2023-07-30T03:26:20;1.00;;;0.90;;
56670;SDS011;42545;50.054;8.306;2023-07-30T03:28:47;0.70;;;0.70;;
56670;SDS011;42545;50.054;8.306;2023-07-30T03:31:14;0.70;;;0.70;;
56670;SDS011;42545;50.054;8.306;2023-07-30T03:33:41;0.60;;;0.60;;
56670;SDS011;42545;50.054;8.306;2023-07-30T03:36:12;0.50;;;0.50;;
56670;SDS011;42545;50.054;8.306;2023-07-30T03:38:40;0.50;;;0.50;;
56670;SDS011;42545;50.054;8.306;2023-07-30T03:41:07;0.70;;;0.70;;
56670;SDS011;42545;50.054;8.306;2023-07-30T03:43:33;0.52;;;0.52;;
56670;SDS011;42545;50.054;8.306;2023-07-30T03:46:00;0.45;;;0.45;;
56670;SDS011;42545;50.054;8.306;2023-07-30T03:48:27;0.47;;;0.47;;
56670;SDS011;42545;50.054;8.306;2023-07-30T03:50:55;0.40;;;0.40;;
56670;SDS011;42545;50.054;8.306;2023-07-30T03:53:23;0.40;;;0.40;;
56670;SDS011;42545;50.054;8.306;2023-07-30T03:55:50;0.50;;;0.50;;
56670;SDS011;42545;50.054;8.306;2023-07-30T03:58:17;0.50;;;0.50;;
56670;SDS011;42545;50.054;8.306;2023-07-30T04:00:44;0.57;;;0.40;;
56670;SDS011;42545;50.054;8.306;2023-07-30T04:03:10;0.52;;;0.52;;
56670;SDS011;42545;50.054;8.306;2023-07-30T04:05:37;0.43;;;0.43;;
56670;SDS011;42545;50.054;8.306;2023-07-30T04:08:04;0.40;;;0.40;;
56670;SDS011;42545;50.054;8.306;2023-07-30T04:10:32;0.45;;;0.45;;
56670;SDS011;42545;50.054;8.306;2023-07-30T04:12:59;0.30;;;0.30;;
56670;SDS011;42545;50.054;8.306;2023-07-30T04:15:26;0.45;;;0.45;;
56670;SDS011;42545;50.054;8.306;2023-07-30T04:17:53;0.40;;;0.40;;
56670;SDS011;42545;50.054;8.306;2023-07-30T04:20:20;0.40;;;0.40;;
56670;SDS011;42545;50.054;8.306;2023-07-30T04:22:47;0.30;;;0.30;;
56670;SDS011;42545;50.054;8.306;2023-07-30T04:25:13;0.40;;;0.40;;
56670;SDS011;42545;50.054;8.306;2023-07-30T04:27:42;0.40;;;0.40;;
56670;SDS011;42545;50.054;8.306;2023-07-30T04:30:09;0.40;;;0.40;;
56670;SDS011;42545;50.054;8.306;2023-07-30T04:32:37;0.40;;;0.40;;
56670;SDS011;42545;50.054;8.306;2023-07-30T04:35:04;0.40;;;0.40;;
56670;SDS011;42545;50.054;8.306;2023-07-30T04:37:32;0.40;;;0.40;;
56670;SDS011;42545;50.054;8.306;2023-07-30T04:39:59;0.40;;;0.40;;
56670;SDS011;42545;50.054;8.306;2023-07-30T04:42:25;0.40;;;0.40;;
56670;SDS011;42545;50.054;8.306;2023-07-30T04:44:54;0.40;;;0.40;;
56670;SDS011;42545;50.054;8.306;2023-07-30T04:47:21;0.40;;;0.40;;
56670;SDS011;42545;50.054;8.306;2023-07-30T04:49:48;0.40;;;0.40;;
56670;SDS011;42545;50.054;8.306;2023-07-30T04:52:14;0.40;;;0.40;;
56670;SDS011;42545;50.054;8.306;2023-07-30T04:54:41;0.40;;;0.40;;
56670;SDS011;42545;50.054;8.306;2023-07-30T04:57:08;0.40;;;0.40;;
56670;SDS011;42545;50.054;8.306;2023-07-30T04:59:35;0.30;;;0.30;;
56670;SDS011;42545;50.054;8.306;2023-07-30T05:02:04;0.50;;;0.50;;
56670;SDS011;42545;50.054;8.306;2023-07-30T05:04:31;0.45;;;0.45;;
56670;SDS011;42545;50.054;8.306;2023-07-30T05:06:58;0.40;;;0.40;;
56670;SDS011;42545;50.054;8.306;2023-07-30T05:09:25;0.45;;;0.45;;
56670;SDS011;42545;50.054;8.306;2023-07-30T05:11:51;0.40;;;0.40;;
56670;SDS011;42545;50.054;8.306;2023-07-30T05:14:18;0.32;;;0.32;;
56670;SDS011;42545;50.054;8.306;2023-07-30T05:16:45;0.40;;;0.40;;
56670;SDS011;42545;50.054;8.306;2023-07-30T05:19:14;0.40;;;0.40;;
56670;SDS011;42545;50.054;8.306;2023-07-30T05:21:42;0.40;;;0.40;;
56670;SDS011;42545;50.054;8.306;2023-07-30T05:24:08;0.50;;;0.50;;
56670;SDS011;42545;50.054;8.306;2023-07-30T05:26:35;0.40;;;0.40;;
56670;SDS011;42545;50.054;8.306;2023-07-30T05:29:01;0.50;;;0.50;;
56670;SDS011;42545;50.054;8.306;2023-07-30T05:31:28;0.43;;;0.43;;
56670;SDS011;42545;50.054;8.306;2023-07-30T05:33:55;1.25;;;0.90;;
56670;SDS011;42545;50.054;8.306;2023-07-30T05:36:24;0.70;;;0.70;;
56670;SDS011;42545;50.054;8.306;2023-07-30T05:38:49;0.70;;;0.70;;
56670;SDS011;42545;50.054;8.306;2023-07-30T05:41:16;0.70;;;0.70;;
56670;SDS011;42545;50.054;8.306;2023-07-30T05:43:43;0.80;;;0.75;;
56670;SDS011;42545;50.054;8.306;2023-07-30T05:46:11;0.68;;;0.68;;
56670;SDS011;42545;50.054;8.306;2023-07-30T05:48:38;1.58;;;1.15;;
56670;SDS011;42545;50.054;8.306;2023-07-30T05:51:05;1.10;;;1.00;;
56670;SDS011;42545;50.054;8.306;2023-07-30T05:53:34;0.82;;;0.82;;
56670;SDS011;42545;50.054;8.306;2023-07-30T05:56:00;1.17;;;1.08;;
56670;SDS011;42545;50.054;8.306;2023-07-30T05:58:27;1.10;;;1.00;;
56670;SDS011;42545;50.054;8.306;2023-07-30T06:00:54;1.42;;;0.98;;
56670;SDS011;42545;50.054;8.306;2023-07-30T06:03:20;0.90;;;0.90;;
56670;SDS011;42545;50.054;8.306;2023-07-30T06:05:47;0.82;;;0.80;;
56670;SDS011;42545;50.054;8.306;2023-07-30T06:08:15;1.00;;;0.80;;
56670;SDS011;42545;50.054;8.306;2023-07-30T06:10:43;0.65;;;0.65;;
56670;SDS011;42545;50.054;8.306;2023-07-30T06:13:12;0.70;;;0.70;;
56670;SDS011;42545;50.054;8.306;2023-07-30T06:15:39;1.10;;;0.80;;
56670;SDS011;42545;50.054;8.306;2023-07-30T06:18:06;1.20;;;1.10;;
56670;SDS011;42545;50.054;8.306;2023-07-30T06:20:33;0.88;;;0.80;;
56670;SDS011;42545;50.054;8.306;2023-07-30T06:23:00;1.48;;;1.00;;
56670;SDS011;42545;50.054;8.306;2023-07-30T06:25:28;1.20;;;1.10;;
56670;SDS011;42545;50.054;8.306;2023-07-30T06:27:57;1.27;;;0.90;;
56670;SDS011;42545;50.054;8.306;2023-07-30T06:30:24;1.30;;;1.00;;
56670;SDS011;42545;50.054;8.306;2023-07-30T06:32:51;2.15;;;1.00;;
56670;SDS011;42545;50.054;8.306;2023-07-30T06:35:19;0.98;;;0.80;;
56670;SDS011;42545;50.054;8.306;2023-07-30T06:37:46;1.02;;;0.90;;
56670;SDS011;42545;50.054;8.306;2023-07-30T06:40:13;1.38;;;0.80;;
56670;SDS011;42545;50.054;8.306;2023-07-30T06:42:41;0.90;;;0.80;;
56670;SDS011;42545;50.054;8.306;2023-07-30T06:45:09;0.82;;;0.80;;
56670;SDS011;42545;50.054;8.306;2023-07-30T06:47:36;1.25;;;0.88;;
56670;SDS011;42545;50.054;8.306;2023-07-30T06:50:03;1.40;;;1.10;;
56670;SDS011;42545;50.054;8.306;2023-07-30T06:52:33;1.63;;;0.93;;
56670;SDS011;42545;50.054;8.306;2023-07-30T06:55:00;1.33;;;1.10;;
56670;SDS011;42545;50.054;8.306;2023-07-30T06:57:27;1.63;;;1.42;;
56670;SDS011;42545;50.054;8.306;2023-07-30T06:59:54;1.20;;;1.10;;
56670;SDS011;42545;50.054;8.306;2023-07-30T07:02:24;1.27;;;1.10;;
56670;SDS011;42545;50.054;8.306;2023-07-30T07:04:51;1.08;;;0.98;;
56670;SDS011;42545;50.054;8.306;2023-07-30T07:07:18;0.98;;;0.82;;
56670;SDS011;42545;50.054;8.306;2023-07-30T07:09:45;1.23;;;1.13;;
56670;SDS011;42545;50.054;8.306;2023-07-30T07:12:12;1.27;;;1.00;;
56670;SDS011;42545;50.054;8.306;2023-07-30T07:14:39;1.20;;;1.10;;
56670;SDS011;42545;50.054;8.306;2023-07-30T07:17:07;1.02;;;0.90;;
56670;SDS011;42545;50.054;8.306;2023-07-30T07:19:35;1.10;;;1.00;;
56670;SDS011;42545;50.054;8.306;2023-07-30T07:22:03;1.30;;;1.20;;
56670;SDS011;42545;50.054;8.306;2023-07-30T07:24:30;1.20;;;1.08;;
56670;SDS011;42545;50.054;8.306;2023-07-30T07:26:57;1.10;;;1.00;;
56670;SDS011;42545;50.054;8.306;2023-07-30T07:29:24;1.55;;;1.10;;
56670;SDS011;42545;50.054;8.306;2023-07-30T07:31:50;1.30;;;1.20;;
56670;SDS011;42545;50.054;8.306;2023-07-30T07:34:18;1.00;;;0.90;;
56670;SDS011;42545;50.054;8.306;2023-07-30T07:36:47;1.20;;;1.10;;
56670;SDS011;42545;50.054;8.306;2023-07-30T07:39:14;1.45;;;1.10;;
56670;SDS011;42545;50.054;8.306;2023-07-30T07:41:40;2.72;;;1.50;;
56670;SDS011;42545;50.054;8.306;2023-07-30T07:44:07;1.45;;;1.20;;
56670;SDS011;42545;50.054;8.306;2023-07-30T07:46:34;1.10;;;1.00;;
56670;SDS011;42545;50.054;8.306;2023-07-30T07:49:01;1.50;;;1.40;;
56670;SDS011;42545;50.054;8.306;2023-07-30T07:51:28;1.73;;;1.38;;
56670;SDS011;42545;50.054;8.306;2023-07-30T07:53:56;1.20;;;1.10;;
56670;SDS011;42545;50.054;8.306;2023-07-30T07:56:23;1.77;;;1.17;;
56670;SDS011;42545;50.054;8.306;2023-07-30T07:58:50;1.50;;;1.30;;
56670;SDS011;42545;50.054;8.306;2023-07-30T08:01:17;1.48;;;1.30;;
56670;SDS011;42545;50.054;8.306;2023-07-30T08:03:44;1.98;;;1.40;;
56670;SDS011;42545;50.054;8.306;2023-07-30T08:06:11;1.30;;;1.20;;
56670;SDS011;42545;50.054;8.306;2023-07-30T08:08:39;1.23;;;1.13;;
56670;SDS011;42545;50.054;8.306;2023-07-30T08:11:08;1.30;;;1.20;;
56670;SDS011;42545;50.054;8.306;2023-07-30T08:13:35;1.38;;;1.27;;
56670;SDS011;42545;50.054;8.306;2023-07-30T08:16:02;1.58;;;1.25;;
56670;SDS011;42545;50.054;8.306;2023-07-30T08:18:29;1.20;;;1.10;;
56670;SDS011;42545;50.054;8.306;2023-07-30T08:20:56;1.40;;;1.30;;
56670;SDS011;42545;50.054;8.306;2023-07-30T08:23:23;1.35;;;1.20;;
56670;SDS011;42545;50.054;8.306;2023-07-30T08:25:52;1.20;;;1.10;;
56670;SDS011;42545;50.054;8.306;2023-07-30T08:28:21;1.35;;;1.20;;
56670;SDS011;42545;50.054;8.306;2023-07-30T08:30:48;1.85;;;1.30;;
56670;SDS011;42545;50.054;8.306;2023-07-30T08:33:15;2.42;;;1.33;;
56670;SDS011;42545;50.054;8.306;2023-07-30T08:35:43;1.38;;;1.23;;
56670;SDS011;42545;50.054;8.306;2023-07-30T08:38:10;1.88;;;1.55;;
56670;SDS011;42545;50.054;8.306;2023-07-30T08:40:37;1.52;;;1.42;;
56670;SDS011;42545;50.054;8.306;2023-07-30T08:43:04;1.45;;;1.30;;
56670;SDS011;42545;50.054;8.306;2023-07-30T08:45:32;2.15;;;1.60;;
56670;SDS011;42545;50.054;8.306;2023-07-30T08:47:59;1.92;;;1.60;;
56670;SDS011;42545;50.054;8.306;2023-07-30T08:50:26;1.60;;;1.48;;
56670;SDS011;42545;50.054;8.306;2023-07-30T08:52:55;1.95;;;1.60;;
56670;SDS011;42545;50.054;8.306;2023-07-30T08:55:24;2.30;;;2.00;;
56670;SDS011;42545;50.054;8.306;2023-07-30T08:57:53;1.98;;;1.73;;
56670;SDS011;42545;50.054;8.306;2023-07-30T09:00:23;2.10;;;1.60;;
56670;SDS011;42545;50.054;8.306;2023-07-30T09:02:54;1.75;;;1.65;;
56670;SDS011;42545;50.054;8.306;2023-07-30T09:05:25;4.00;;;2.63;;
56670;SDS011;42545;50.054;8.306;2023-07-30T09:07:54;2.83;;;2.20;;
56670;SDS011;42545;50.054;8.306;2023-07-30T09:13:21;3.35;;;2.30;;
56670;SDS011;42545;50.054;8.306;2023-07-30T09:15:49;3.55;;;2.55;;
56670;SDS011;42545;50.054;8.306;2023-07-30T09:18:17;3.10;;;2.50;;
56670;SDS011;42545;50.054;8.306;2023-07-30T09:20:45;3.08;;;2.30;;
56670;SDS011;42545;50.054;8.306;2023-07-30T09:23:13;2.30;;;2.03;;
56670;SDS011;42545;50.054;8.306;2023-07-30T09:25:41;2.15;;;1.83;;
56670;SDS011;42545;50.054;8.306;2023-07-30T09:28:08;1.92;;;1.67;;
56670;SDS011;42545;50.054;8.306;2023-07-30T09:30:35;2.22;;;1.80;;
56670;SDS011;42545;50.054;8.306;2023-07-30T09:33:03;1.75;;;1.52;;
56670;SDS011;42545;50.054;8.306;2023-07-30T09:35:32;1.80;;;1.55;;
56670;SDS011;42545;50.054;8.306;2023-07-30T09:38:00;1.67;;;1.42;;
56670;SDS011;42545;50.054;8.306;2023-07-30T09:40:30;1.30;;;1.20;;
56670;SDS011;42545;50.054;8.306;2023-07-30T09:42:59;1.40;;;1.15;;
56670;SDS011;42545;50.054;8.306;2023-07-30T09:45:26;1.73;;;0.95;;
56670;SDS011;42545;50.054;8.306;2023-07-30T09:47:54;1.15;;;1.02;;
56670;SDS011;42545;50.054;8.306;2023-07-30T09:50:22;1.45;;;1.17;;
56670;SDS011;42545;50.054;8.306;2023-07-30T09:52:51;1.35;;;1.00;;
56670;SDS011;42545;50.054;8.306;2023-07-30T09:55:18;1.33;;;1.20;;
56670;SDS011;42545;50.054;8.306;2023-07-30T09:57:45;1.52;;;1.05;;
56670;SDS011;42545;50.054;8.306;2023-07-30T10:00:12;1.20;;;1.10;;
56670;SDS011;42545;50.054;8.306;2023-07-30T10:02:41;1.15;;;1.05;;
56670;SDS011;42545;50.054;8.306;2023-07-30T10:05:14;1.33;;;1.23;;
56670;SDS011;42545;50.054;8.306;2023-07-30T10:07:44;1.40;;;1.05;;
56670;SDS011;42545;50.054;8.306;2023-07-30T10:10:17;1.20;;;1.10;;
56670;SDS011;42545;50.054;8.306;2023-07-30T10:12:45;1.27;;;1.17;;
56670;SDS011;42545;50.054;8.306;2023-07-30T10:15:14;1.17;;;1.08;;
56670;SDS011;42545;50.054;8.306;2023-07-30T10:17:48;0.88;;;0.88;;
56670;SDS011;42545;50.054;8.306;2023-07-30T10:20:23;1.20;;;1.10;;
56670;SDS011;42545;50.054;8.306;2023-07-30T10:22:51;2.05;;;1.10;;
56670;SDS011;42545;50.054;8.306;2023-07-30T10:25:21;1.33;;;1.10;;
56670;SDS011;42545;50.054;8.306;2023-07-30T10:27:52;1.30;;;1.20;;
56670;SDS011;42545;50.054;8.306;2023-07-30T10:30:19;1.30;;;1.20;;
56670;SDS011;42545;50.054;8.306;2023-07-30T10:33:01;1.02;;;0.93;;
56670;SDS011;42545;50.054;8.306;2023-07-30T10:35:38;1.40;;;1.30;;
56670;SDS011;42545;50.054;8.306;2023-07-30T10:38:12;1.40;;;1.30;;
56670;SDS011;42545;50.054;8.306;2023-07-30T10:40:41;1.67;;;1.30;;
56670;SDS011;42545;50.054;8.306;2023-07-30T10:43:15;1.40;;;1.30;;
56670;SDS011;42545;50.054;8.306;2023-07-30T10:45:48;1.65;;;1.35;;
56670;SDS011;42545;50.054;8.306;2023-07-30T10:48:14;1.67;;;1.58;;
56670;SDS011;42545;50.054;8.306;2023-07-30T10:50:41;1.55;;;1.45;;
56670;SDS011;42545;50.054;8.306;2023-07-30T10:53:13;2.42;;;1.55;;
56670;SDS011;42545;50.054;8.306;2023-07-30T10:55:42;2.25;;;1.77;;
56670;SDS011;42545;50.054;8.306;2023-07-30T10:58:09;1.80;;;1.60;;
56670;SDS011;42545;50.054;8.306;2023-07-30T11:00:36;2.08;;;1.75;;
56670;SDS011;42545;50.054;8.306;2023-07-30T11:03:04;2.60;;;1.55;;
56670;SDS011;42545;50.054;8.306;2023-07-30T11:05:31;1.77;;;1.67;;
56670;SDS011;42545;50.054;8.306;2023-07-30T11:07:58;1.60;;;1.50;;
56670;SDS011;42545;50.054;8.306;2023-07-30T11:10:25;2.08;;;1.40;;
56670;SDS011;42545;50.054;8.306;2023-07-30T11:12:53;3.20;;;1.92;;
56670;SDS011;42545;50.054;8.306;2023-07-30T11:15:19;2.88;;;1.65;;
56670;SDS011;42545;50.054;8.306;2023-07-30T11:17:46;2.03;;;1.50;;
56670;SDS011;42545;50.054;8.306;2023-07-30T11:20:23;2.45;;;1.52;;
56670;SDS011;42545;50.054;8.306;2023-07-30T11:22:52;2.58;;;1.42;;
56670;SDS011;42545;50.054;8.306;2023-07-30T11:25:18;2.10;;;1.88;;
56670;SDS011;42545;50.054;8.306;2023-07-30T11:27:46;3.08;;;1.77;;
56670;SDS011;42545;50.054;8.306;2023-07-30T11:30:15;2.20;;;1.50;;
56670;SDS011;42545;50.054;8.306;2023-07-30T11:32:42;1.70;;;1.60;;
56670;SDS011;42545;50.054;8.306;2023-07-30T11:35:09;2.53;;;1.90;;
56670;SDS011;42545;50.054;8.306;2023-07-30T11:37:37;3.25;;;1.70;;
56670;SDS011;42545;50.054;8.306;2023-07-30T11:40:06;2.60;;;1.50;;
56670;SDS011;42545;50.054;8.306;2023-07-30T11:42:34;1.70;;;1.50;;
56670;SDS011;42545;50.054;8.306;2023-07-30T11:45:19;2.53;;;1.63;;
56670;SDS011;42545;50.054;8.306;2023-07-30T11:47:49;3.10;;;1.63;;
56670;SDS011;42545;50.054;8.306;2023-07-30T11:50:17;1.88;;;1.50;;
56670;SDS011;42545;50.054;8.306;2023-07-30T11:52:51;6.55;;;1.67;;
56670;SDS011;42545;50.054;8.306;2023-07-30T11:55:18;1.55;;;1.45;;
56670;SDS011;42545;50.054;8.306;2023-07-30T11:57:46;2.25;;;1.60;;
56670;SDS011;42545;50.054;8.306;2023-07-30T12:00:13;1.70;;;1.50;;
56670;SDS011;42545;50.054;8.306;2023-07-30T12:02:42;1.70;;;1.60;;
56670;SDS011;42545;50.054;8.306;2023-07-30T12:05:09;1.48;;;1.30;;
56670;SDS011;42545;50.054;8.306;2023-07-30T12:07:39;3.28;;;1.90;;
56670;SDS011;42545;50.054;8.306;2023-07-30T12:10:08;3.90;;;1.90;;
56670;SDS011;42545;50.054;8.306;2023-07-30T12:12:36;2.17;;;1.60;;
56670;SDS011;42545;50.054;8.306;2023-07-30T12:15:09;3.47;;;1.90;;
56670;SDS011;42545;50.054;8.306;2023-07-30T12:17:38;1.75;;;1.60;;
56670;SDS011;42545;50.054;8.306;2023-07-30T12:20:09;2.42;;;1.60;;
56670;SDS011;42545;50.054;8.306;2023-07-30T12:22:37;2.95;;;1.60;;
56670;SDS011;42545;50.054;8.306;2023-07-30T12:25:07;2.30;;;1.63;;
56670;SDS011;42545;50.054;8.306;2023-07-30T12:27:35;3.25;;;1.80;;
56670;SDS011;42545;50.054;8.306;2023-07-30T12:30:02;2.80;;;1.77;;
56670;SDS011;42545;50.054;8.306;2023-07-30T12:32:29;6.13;;;2.13;;
56670;SDS011;42545;50.054;8.306;2023-07-30T12:35:00;5.20;;;2.20;;
56670;SDS011;42545;50.054;8.306;2023-07-30T12:37:29;3.60;;;1.60;;
56670;SDS011;42545;50.054;8.306;2023-07-30T12:42:24;4.35;;;1.92;;
56670;SDS011;42545;50.054;8.306;2023-07-30T12:44:51;3.35;;;1.65;;
56670;SDS011;42545;50.054;8.306;2023-07-30T12:47:18;6.28;;;1.90;;
56670;SDS011;42545;50.054;8.306;2023-07-30T12:49:45;2.40;;;1.80;;
56670;SDS011;42545;50.054;8.306;2023-07-30T12:52:11;5.57;;;1.90;;
56670;SDS011;42545;50.054;8.306;2023-07-30T12:54:39;3.05;;;1.77;;
56670;SDS011;42545;50.054;8.306;2023-07-30T12:57:06;4.60;;;1.85;;
56670;SDS011;42545;50.054;8.306;2023-07-30T12:59:33;3.45;;;2.03;;
56670;SDS011;42545;50.054;8.306;2023-07-30T13:02:01;3.88;;;2.00;;
56670;SDS011;42545;50.054;8.306;2023-07-30T13:04:28;3.38;;;1.80;;
56670;SDS011;42545;50.054;8.306;2023-07-30T13:06:55;3.53;;;1.70;;
56670;SDS011;42545;50.054;8.306;2023-07-30T13:09:22;4.45;;;1.90;;
56670;SDS011;42545;50.054;8.306;2023-07-30T13:11:51;4.32;;;1.88;;
56670;SDS011;42545;50.054;8.306;2023-07-30T13:14:18;3.85;;;1.75;;
56670;SDS011;42545;50.054;8.306;2023-07-30T13:16:45;3.58;;;1.80;;
56670;SDS011;42545;50.054;8.306;2023-07-30T13:19:13;4.05;;;2.10;;
56670;SDS011;42545;50.054;8.306;2023-07-30T13:21:44;3.97;;;1.70;;
56670;SDS011;42545;50.054;8.306;2023-07-30T13:24:10;2.40;;;1.60;;
56670;SDS011;42545;50.054;8.306;2023-07-30T13:26:37;4.43;;;2.05;;
56670;SDS011;42545;50.054;8.306;2023-07-30T13:29:06;5.13;;;2.25;;
56670;SDS011;42545;50.054;8.306;2023-07-30T13:31:33;3.03;;;1.88;;
56670;SDS011;42545;50.054;8.306;2023-07-30T13:34:00;3.25;;;2.05;;
56670;SDS011;42545;50.054;8.306;2023-07-30T13:36:29;3.80;;;1.90;;
56670;SDS011;42545;50.054;8.306;2023-07-30T13:38:56;6.15;;;2.60;;
56670;SDS011;42545;50.054;8.306;2023-07-30T13:41:23;4.00;;;2.00;;
56670;SDS011;42545;50.054;8.306;2023-07-30T13:43:52;5.90;;;2.33;;
56670;SDS011;42545;50.054;8.306;2023-07-30T13:46:21;2.70;;;1.80;;
56670;SDS011;42545;50.054;8.306;2023-07-30T13:48:48;2.83;;;1.70;;
56670;SDS011;42545;50.054;8.306;2023-07-30T13:53:50;3.80;;;2.25;;
56670;SDS011;42545;50.054;8.306;2023-07-30T13:56:17;4.05;;;2.00;;
56670;SDS011;42545;50.054;8.306;2023-07-30T13:58:46;4.50;;;2.20;;
56670;SDS011;42545;50.054;8.306;2023-07-30T14:01:13;2.33;;;1.60;;
56670;SDS011;42545;50.054;8.306;2023-07-30T14:03:42;2.78;;;1.90;;
56670;SDS011;42545;50.054;8.306;2023-07-30T14:06:10;3.50;;;2.08;;
56670;SDS011;42545;50.054;8.306;2023-07-30T14:08:37;3.58;;;1.90;;
56670;SDS011;42545;50.054;8.306;2023-07-30T14:11:04;2.65;;;1.95;;
56670;SDS011;42545;50.054;8.306;2023-07-30T14:13:31;7.57;;;1.83;;
56670;SDS011;42545;50.054;8.306;2023-07-30T14:15:58;2.40;;;1.70;;
56670;SDS011;42545;50.054;8.306;2023-07-30T14:18:25;3.72;;;2.13;;
56670;SDS011;42545;50.054;8.306;2023-07-30T14:20:53;2.72;;;1.85;;
56670;SDS011;42545;50.054;8.306;2023-07-30T14:23:20;3.65;;;1.88;;
56670;SDS011;42545;50.054;8.306;2023-07-30T14:25:47;2.53;;;1.67;;
56670;SDS011;42545;50.054;8.306;2023-07-30T14:28:15;2.42;;;1.60;;
56670;SDS011;42545;50.054;8.306;2023-07-30T14:30:42;1.75;;;1.60;;
56670;SDS011;42545;50.054;8.306;2023-07-30T14:33:09;4.43;;;1.88;;
56670;SDS011;42545;50.054;8.306;2023-07-30T14:35:36;2.88;;;1.85;;
56670;SDS011;42545;50.054;8.306;2023-07-30T14:38:05;8.63;;;2.03;;
56670;SDS011;42545;50.054;8.306;2023-07-30T14:40:32;4.50;;;1.95;;
56670;SDS011;42545;50.054;8.306;2023-07-30T14:42:59;3.20;;;1.60;;
56670;SDS011;42545;50.054;8.306;2023-07-30T14:45:25;3.15;;;2.03;;
56670;SDS011;42545;50.054;8.306;2023-07-30T14:47:52;8.43;;;1.98;;
56670;SDS011;42545;50.054;8.306;2023-07-30T14:50:19;3.28;;;2.20;;
56670;SDS011;42545;50.054;8.306;2023-07-30T14:52:46;2.97;;;1.80;;
56670;SDS011;42545;50.054;8.306;2023-07-30T14:55:15;2.25;;;1.48;;
56670;SDS011;42545;50.054;8.306;2023-07-30T14:57:42;3.92;;;1.75;;
56670;SDS011;42545;50.054;8.306;2023-07-30T15:00:09;4.13;;;2.00;;